sensor_id;sensor_type;location;lat;lon;timestamp;temperature;humidity
15384;DHT22;7790;53.022;12.968;2023-04-24T00:02:00;19.40;49.90
15384;DHT22;7790;53.022;12.968;2023-04-24T00:06:01;19.30;49.80
15384;DHT22;7790;53.022;12.968;2023-04-24T00:10:03;19.30;49.90
15384;DHT22;7790;53.022;12.968;2023-04-24T00:14:04;19.30;49.80
15384;DHT22;7790;53.022;12.968;2023-04-24T00:18:05;19.30;49.80
15384;DHT22;7790;53.022;12.968;2023-04-24T00:22:05;19.30;49.90
15384;DHT22;7790;53.022;12.968;2023-04-24T00:26:06;19.30;49.80
15384;DHT22;7790;53.022;12.968;2023-04-24T00:30:07;19.30;49.90
15384;DHT22;7790;53.022;12.968;2023-04-24T00:34:09;19.30;49.50
15384;DHT22;7790;53.022;12.968;2023-04-24T00:38:11;19.20;49.80
15384;DHT22;7790;53.022;12.968;2023-04-24T00:42:12;19.20;49.80
15384;DHT22;7790;53.022;12.968;2023-04-24T00:46:15;19.20;49.70
15384;DHT22;7790;53.022;12.968;2023-04-24T00:50:17;19.20;49.80
15384;DHT22;7790;53.022;12.968;2023-04-24T00:54:18;19.20;49.80
15384;DHT22;7790;53.022;12.968;2023-04-24T00:58:19;19.10;49.60
15384;DHT22;7790;53.022;12.968;2023-04-24T01:02:21;19.10;49.70
15384;DHT22;7790;53.022;12.968;2023-04-24T01:06:23;19.20;49.70
15384;DHT22;7790;53.022;12.968;2023-04-24T01:10:29;19.10;49.60
15384;DHT22;7790;53.022;12.968;2023-04-24T01:14:31;19.10;49.60
15384;DHT22;7790;53.022;12.968;2023-04-24T01:18:33;19.10;49.60
15384;DHT22;7790;53.022;12.968;2023-04-24T01:22:34;19.10;49.60
15384;DHT22;7790;53.022;12.968;2023-04-24T01:26:35;19.10;49.50
15384;DHT22;7790;53.022;12.968;2023-04-24T01:30:37;19.10;49.60
15384;DHT22;7790;53.022;12.968;2023-04-24T01:34:38;19.10;49.50
15384;DHT22;7790;53.022;12.968;2023-04-24T01:38:40;19.10;49.50
15384;DHT22;7790;53.022;12.968;2023-04-24T01:42:41;19.10;49.60
15384;DHT22;7790;53.022;12.968;2023-04-24T01:46:43;19.00;49.50
15384;DHT22;7790;53.022;12.968;2023-04-24T01:50:44;19.10;49.60
15384;DHT22;7790;53.022;12.968;2023-04-24T01:54:46;19.00;49.50
15384;DHT22;7790;53.022;12.968;2023-04-24T01:58:47;19.00;49.60
15384;DHT22;7790;53.022;12.968;2023-04-24T02:02:49;18.80;49.70
15384;DHT22;7790;53.022;12.968;2023-04-24T02:06:50;18.70;49.90
15384;DHT22;7790;53.022;12.968;2023-04-24T02:10:51;18.70;50.00
15384;DHT22;7790;53.022;12.968;2023-04-24T02:14:52;18.70;50.10
15384;DHT22;7790;53.022;12.968;2023-04-24T02:18:53;18.80;50.20
15384;DHT22;7790;53.022;12.968;2023-04-24T02:22:54;18.90;50.80
15384;DHT22;7790;53.022;12.968;2023-04-24T02:26:55;18.90;51.00
15384;DHT22;7790;53.022;12.968;2023-04-24T02:30:56;19.00;51.00
15384;DHT22;7790;53.022;12.968;2023-04-24T02:34:59;19.00;51.30
15384;DHT22;7790;53.022;12.968;2023-04-24T02:39:00;19.00;51.30
15384;DHT22;7790;53.022;12.968;2023-04-24T02:43:01;19.00;51.40
15384;DHT22;7790;53.022;12.968;2023-04-24T02:47:02;19.00;51.40
15384;DHT22;7790;53.022;12.968;2023-04-24T02:51:05;19.00;51.40
15384;DHT22;7790;53.022;12.968;2023-04-24T02:55:07;19.00;51.50
15384;DHT22;7790;53.022;12.968;2023-04-24T02:59:08;18.90;51.40
15384;DHT22;7790;53.022;12.968;2023-04-24T03:03:10;18.90;51.70
15384;DHT22;7790;53.022;12.968;2023-04-24T03:07:11;18.90;51.70
15384;DHT22;7790;53.022;12.968;2023-04-24T03:11:11;18.90;51.60
15384;DHT22;7790;53.022;12.968;2023-04-24T03:15:12;18.90;51.60
15384;DHT22;7790;53.022;12.968;2023-04-24T03:19:13;18.90;51.60
15384;DHT22;7790;53.022;12.968;2023-04-24T03:23:29;18.90;51.70
15384;DHT22;7790;53.022;12.968;2023-04-24T03:27:30;18.90;51.70
15384;DHT22;7790;53.022;12.968;2023-04-24T03:31:35;18.80;51.70
15384;DHT22;7790;53.022;12.968;2023-04-24T03:35:36;18.80;51.50
15384;DHT22;7790;53.022;12.968;2023-04-24T03:39:42;18.80;51.50
15384;DHT22;7790;53.022;12.968;2023-04-24T03:43:43;18.80;51.60
15384;DHT22;7790;53.022;12.968;2023-04-24T03:47:45;18.80;52.10
15384;DHT22;7790;53.022;12.968;2023-04-24T03:51:46;18.80;51.60
15384;DHT22;7790;53.022;12.968;2023-04-24T03:55:54;18.80;51.50
15384;DHT22;7790;53.022;12.968;2023-04-24T03:59:58;18.80;51.50
15384;DHT22;7790;53.022;12.968;2023-04-24T04:04:01;18.80;51.50
15384;DHT22;7790;53.022;12.968;2023-04-24T04:08:03;18.80;51.50
15384;DHT22;7790;53.022;12.968;2023-04-24T04:12:04;18.80;51.50
15384;DHT22;7790;53.022;12.968;2023-04-24T04:16:08;18.80;51.50
15384;DHT22;7790;53.022;12.968;2023-04-24T04:20:09;18.70;51.50
15384;DHT22;7790;53.022;12.968;2023-04-24T04:24:12;18.70;51.50
15384;DHT22;7790;53.022;12.968;2023-04-24T04:28:18;18.70;51.40
15384;DHT22;7790;53.022;12.968;2023-04-24T04:32:21;18.70;51.40
15384;DHT22;7790;53.022;12.968;2023-04-24T04:36:24;18.70;51.60
15384;DHT22;7790;53.022;12.968;2023-04-24T04:40:33;18.70;51.60
15384;DHT22;7790;53.022;12.968;2023-04-24T04:44:38;18.70;51.60
15384;DHT22;7790;53.022;12.968;2023-04-24T04:48:42;18.70;51.50
15384;DHT22;7790;53.022;12.968;2023-04-24T04:52:44;18.70;51.40
15384;DHT22;7790;53.022;12.968;2023-04-24T04:56:55;18.70;51.40
15384;DHT22;7790;53.022;12.968;2023-04-24T05:00:58;18.70;51.50
15384;DHT22;7790;53.022;12.968;2023-04-24T05:05:05;18.70;50.90
15384;DHT22;7790;53.022;12.968;2023-04-24T05:09:06;18.70;51.10
15384;DHT22;7790;53.022;12.968;2023-04-24T05:13:21;18.70;50.70
15384;DHT22;7790;53.022;12.968;2023-04-24T05:17:22;18.70;50.80
15384;DHT22;7790;53.022;12.968;2023-04-24T05:21:24;18.70;50.80
15384;DHT22;7790;53.022;12.968;2023-04-24T05:25:26;18.70;50.90
15384;DHT22;7790;53.022;12.968;2023-04-24T05:29:32;18.70;50.90
15384;DHT22;7790;53.022;12.968;2023-04-24T05:33:33;18.70;51.00
15384;DHT22;7790;53.022;12.968;2023-04-24T05:37:34;18.70;51.10
15384;DHT22;7790;53.022;12.968;2023-04-24T05:41:36;18.70;51.00
15384;DHT22;7790;53.022;12.968;2023-04-24T05:45:37;18.70;51.10
15384;DHT22;7790;53.022;12.968;2023-04-24T05:49:38;18.70;51.10
15384;DHT22;7790;53.022;12.968;2023-04-24T05:53:39;18.70;51.20
15384;DHT22;7790;53.022;12.968;2023-04-24T05:57:40;18.70;51.20
15384;DHT22;7790;53.022;12.968;2023-04-24T06:01:41;18.70;51.10
15384;DHT22;7790;53.022;12.968;2023-04-24T06:05:51;18.70;51.00
15384;DHT22;7790;53.022;12.968;2023-04-24T06:09:52;18.70;51.00
15384;DHT22;7790;53.022;12.968;2023-04-24T06:13:52;18.80;51.00
15384;DHT22;7790;53.022;12.968;2023-04-24T06:18:12;18.80;51.40
15384;DHT22;7790;53.022;12.968;2023-04-24T06:22:14;18.70;52.60
15384;DHT22;7790;53.022;12.968;2023-04-24T06:26:16;18.50;54.00
15384;DHT22;7790;53.022;12.968;2023-04-24T06:30:17;18.30;54.10
15384;DHT22;7790;53.022;12.968;2023-04-24T06:34:18;18.20;54.40
15384;DHT22;7790;53.022;12.968;2023-04-24T06:38:20;18.20;54.70
15384;DHT22;7790;53.022;12.968;2023-04-24T06:42:21;18.20;54.80
15384;DHT22;7790;53.022;12.968;2023-04-24T06:46:24;18.20;55.10
15384;DHT22;7790;53.022;12.968;2023-04-24T06:50:26;18.10;55.10
15384;DHT22;7790;53.022;12.968;2023-04-24T06:54:27;18.10;55.20
15384;DHT22;7790;53.022;12.968;2023-04-24T06:58:30;18.20;55.30
15384;DHT22;7790;53.022;12.968;2023-04-24T07:02:31;18.20;55.10
15384;DHT22;7790;53.022;12.968;2023-04-24T07:06:32;18.10;55.90
15384;DHT22;7790;53.022;12.968;2023-04-24T07:10:33;18.10;55.50
15384;DHT22;7790;53.022;12.968;2023-04-24T07:14:35;18.10;55.30
15384;DHT22;7790;53.022;12.968;2023-04-24T07:18:36;18.20;55.80
15384;DHT22;7790;53.022;12.968;2023-04-24T07:22:38;18.20;55.80
15384;DHT22;7790;53.022;12.968;2023-04-24T07:26:39;18.20;55.90
15384;DHT22;7790;53.022;12.968;2023-04-24T07:30:40;18.20;55.80
15384;DHT22;7790;53.022;12.968;2023-04-24T07:34:44;18.20;55.70
15384;DHT22;7790;53.022;12.968;2023-04-24T07:38:46;18.20;55.80
15384;DHT22;7790;53.022;12.968;2023-04-24T07:42:47;18.30;55.80
15384;DHT22;7790;53.022;12.968;2023-04-24T07:46:50;18.30;56.10
15384;DHT22;7790;53.022;12.968;2023-04-24T07:50:52;18.40;56.30
15384;DHT22;7790;53.022;12.968;2023-04-24T07:54:54;18.40;56.50
15384;DHT22;7790;53.022;12.968;2023-04-24T07:58:59;18.40;56.20
15384;DHT22;7790;53.022;12.968;2023-04-24T08:03:00;18.40;56.10
15384;DHT22;7790;53.022;12.968;2023-04-24T08:07:01;18.40;55.50
15384;DHT22;7790;53.022;12.968;2023-04-24T08:11:02;18.40;55.60
15384;DHT22;7790;53.022;12.968;2023-04-24T08:15:03;18.40;55.20
15384;DHT22;7790;53.022;12.968;2023-04-24T08:19:04;18.30;55.30
15384;DHT22;7790;53.022;12.968;2023-04-24T08:23:05;18.40;55.20
15384;DHT22;7790;53.022;12.968;2023-04-24T08:27:06;18.40;55.30
15384;DHT22;7790;53.022;12.968;2023-04-24T08:31:07;18.40;55.50
15384;DHT22;7790;53.022;12.968;2023-04-24T08:35:08;18.40;54.90
15384;DHT22;7790;53.022;12.968;2023-04-24T08:39:09;18.40;54.70
15384;DHT22;7790;53.022;12.968;2023-04-24T08:43:11;18.40;54.60
15384;DHT22;7790;53.022;12.968;2023-04-24T08:47:13;18.40;54.80
15384;DHT22;7790;53.022;12.968;2023-04-24T08:51:13;18.40;54.80
15384;DHT22;7790;53.022;12.968;2023-04-24T08:55:15;18.40;54.30
15384;DHT22;7790;53.022;12.968;2023-04-24T08:59:18;18.40;54.60
15384;DHT22;7790;53.022;12.968;2023-04-24T09:03:21;18.40;54.60
15384;DHT22;7790;53.022;12.968;2023-04-24T09:07:24;18.40;54.90
15384;DHT22;7790;53.022;12.968;2023-04-24T09:11:27;18.40;55.00
15384;DHT22;7790;53.022;12.968;2023-04-24T09:15:28;18.60;56.70
15384;DHT22;7790;53.022;12.968;2023-04-24T09:19:29;18.60;57.40
15384;DHT22;7790;53.022;12.968;2023-04-24T09:23:31;18.70;57.70
15384;DHT22;7790;53.022;12.968;2023-04-24T09:27:34;18.70;57.90
15384;DHT22;7790;53.022;12.968;2023-04-24T09:31:35;18.70;58.50
15384;DHT22;7790;53.022;12.968;2023-04-24T09:35:36;18.80;57.70
15384;DHT22;7790;53.022;12.968;2023-04-24T09:39:36;18.70;57.10
15384;DHT22;7790;53.022;12.968;2023-04-24T09:43:37;18.70;58.30
15384;DHT22;7790;53.022;12.968;2023-04-24T09:47:39;18.60;58.50
15384;DHT22;7790;53.022;12.968;2023-04-24T09:51:40;18.60;58.40
15384;DHT22;7790;53.022;12.968;2023-04-24T09:55:44;18.60;58.60
15384;DHT22;7790;53.022;12.968;2023-04-24T09:59:46;18.60;58.30
15384;DHT22;7790;53.022;12.968;2023-04-24T10:03:47;18.70;58.60
15384;DHT22;7790;53.022;12.968;2023-04-24T10:07:48;18.70;58.20
15384;DHT22;7790;53.022;12.968;2023-04-24T10:11:51;18.80;57.20
15384;DHT22;7790;53.022;12.968;2023-04-24T10:15:52;18.80;57.10
15384;DHT22;7790;53.022;12.968;2023-04-24T10:19:54;18.90;56.70
15384;DHT22;7790;53.022;12.968;2023-04-24T10:23:55;18.90;56.60
15384;DHT22;7790;53.022;12.968;2023-04-24T10:27:57;18.90;56.40
15384;DHT22;7790;53.022;12.968;2023-04-24T10:32:00;18.90;56.40
15384;DHT22;7790;53.022;12.968;2023-04-24T10:36:01;18.90;55.90
15384;DHT22;7790;53.022;12.968;2023-04-24T10:40:02;19.00;56.20
15384;DHT22;7790;53.022;12.968;2023-04-24T10:44:14;19.00;56.00
15384;DHT22;7790;53.022;12.968;2023-04-24T10:48:15;19.00;56.80
15384;DHT22;7790;53.022;12.968;2023-04-24T10:52:16;19.00;57.50
15384;DHT22;7790;53.022;12.968;2023-04-24T10:56:17;19.00;57.90
15384;DHT22;7790;53.022;12.968;2023-04-24T11:00:20;19.00;57.80
15384;DHT22;7790;53.022;12.968;2023-04-24T11:04:32;19.10;57.90
15384;DHT22;7790;53.022;12.968;2023-04-24T11:12:38;19.00;60.30
15384;DHT22;7790;53.022;12.968;2023-04-24T11:16:52;19.00;60.20
15384;DHT22;7790;53.022;12.968;2023-04-24T11:20:54;19.00;59.80
15384;DHT22;7790;53.022;12.968;2023-04-24T11:24:55;19.00;58.70
15384;DHT22;7790;53.022;12.968;2023-04-24T11:29:07;18.90;59.10
15384;DHT22;7790;53.022;12.968;2023-04-24T11:33:08;19.00;59.20
15384;DHT22;7790;53.022;12.968;2023-04-24T11:37:10;19.00;58.90
15384;DHT22;7790;53.022;12.968;2023-04-24T11:41:11;19.00;58.70
15384;DHT22;7790;53.022;12.968;2023-04-24T11:45:22;19.00;58.60
15384;DHT22;7790;53.022;12.968;2023-04-24T11:49:24;19.00;58.60
15384;DHT22;7790;53.022;12.968;2023-04-24T11:53:24;19.00;58.40
15384;DHT22;7790;53.022;12.968;2023-04-24T11:57:26;19.00;58.10
15384;DHT22;7790;53.022;12.968;2023-04-24T12:01:45;19.10;58.10
15384;DHT22;7790;53.022;12.968;2023-04-24T12:05:47;19.00;58.00
15384;DHT22;7790;53.022;12.968;2023-04-24T12:09:56;19.00;58.50
15384;DHT22;7790;53.022;12.968;2023-04-24T12:13:57;19.00;58.80
15384;DHT22;7790;53.022;12.968;2023-04-24T12:17:59;19.00;58.60
15384;DHT22;7790;53.022;12.968;2023-04-24T12:22:01;19.00;58.60
15384;DHT22;7790;53.022;12.968;2023-04-24T12:26:05;18.90;58.90
15384;DHT22;7790;53.022;12.968;2023-04-24T12:30:11;19.00;58.90
15384;DHT22;7790;53.022;12.968;2023-04-24T12:34:23;19.00;58.90
15384;DHT22;7790;53.022;12.968;2023-04-24T12:38:26;19.00;59.00
15384;DHT22;7790;53.022;12.968;2023-04-24T12:42:29;18.90;58.80
15384;DHT22;7790;53.022;12.968;2023-04-24T12:46:30;18.90;58.80
15384;DHT22;7790;53.022;12.968;2023-04-24T12:50:31;18.90;58.70
15384;DHT22;7790;53.022;12.968;2023-04-24T12:54:35;19.00;58.50
15384;DHT22;7790;53.022;12.968;2023-04-24T12:58:35;18.90;58.40
15384;DHT22;7790;53.022;12.968;2023-04-24T13:02:36;18.90;58.40
15384;DHT22;7790;53.022;12.968;2023-04-24T13:06:37;18.90;58.20
15384;DHT22;7790;53.022;12.968;2023-04-24T13:10:38;18.90;58.30
15384;DHT22;7790;53.022;12.968;2023-04-24T13:14:39;18.90;58.10
15384;DHT22;7790;53.022;12.968;2023-04-24T13:18:40;18.90;58.30
15384;DHT22;7790;53.022;12.968;2023-04-24T13:22:41;18.90;58.20
15384;DHT22;7790;53.022;12.968;2023-04-24T13:26:42;18.90;58.30
15384;DHT22;7790;53.022;12.968;2023-04-24T13:30:43;18.90;58.30
15384;DHT22;7790;53.022;12.968;2023-04-24T13:34:46;18.90;58.20
15384;DHT22;7790;53.022;12.968;2023-04-24T13:38:46;18.90;58.10
15384;DHT22;7790;53.022;12.968;2023-04-24T13:42:47;18.90;58.10
15384;DHT22;7790;53.022;12.968;2023-04-24T13:46:51;18.90;58.00
15384;DHT22;7790;53.022;12.968;2023-04-24T13:50:52;18.90;58.20
15384;DHT22;7790;53.022;12.968;2023-04-24T13:54:53;19.00;58.00
15384;DHT22;7790;53.022;12.968;2023-04-24T13:58:54;18.90;58.00
15384;DHT22;7790;53.022;12.968;2023-04-24T14:02:55;18.90;57.80
15384;DHT22;7790;53.022;12.968;2023-04-24T14:06:55;18.90;57.80
15384;DHT22;7790;53.022;12.968;2023-04-24T14:10:56;19.00;57.90
15384;DHT22;7790;53.022;12.968;2023-04-24T14:14:57;18.90;57.70
15384;DHT22;7790;53.022;12.968;2023-04-24T14:18:58;19.00;57.60
15384;DHT22;7790;53.022;12.968;2023-04-24T14:23:03;19.00;57.60
15384;DHT22;7790;53.022;12.968;2023-04-24T14:27:04;19.00;57.50
15384;DHT22;7790;53.022;12.968;2023-04-24T14:31:05;18.90;57.50
15384;DHT22;7790;53.022;12.968;2023-04-24T14:35:06;18.90;57.30
15384;DHT22;7790;53.022;12.968;2023-04-24T14:39:07;18.90;57.40
15384;DHT22;7790;53.022;12.968;2023-04-24T14:43:08;18.90;57.30
15384;DHT22;7790;53.022;12.968;2023-04-24T14:47:09;18.90;57.30
15384;DHT22;7790;53.022;12.968;2023-04-24T14:51:10;18.90;57.20
15384;DHT22;7790;53.022;12.968;2023-04-24T14:55:10;18.90;57.10
15384;DHT22;7790;53.022;12.968;2023-04-24T14:59:12;18.90;57.10
15384;DHT22;7790;53.022;12.968;2023-04-24T15:03:12;18.90;56.90
15384;DHT22;7790;53.022;12.968;2023-04-24T15:07:13;18.90;56.80
15384;DHT22;7790;53.022;12.968;2023-04-24T15:11:14;19.00;56.60
15384;DHT22;7790;53.022;12.968;2023-04-24T15:15:15;19.20;55.80
15384;DHT22;7790;53.022;12.968;2023-04-24T15:19:16;19.40;55.30
15384;DHT22;7790;53.022;12.968;2023-04-24T15:23:17;19.60;55.10
15384;DHT22;7790;53.022;12.968;2023-04-24T15:27:17;19.90;54.80
15384;DHT22;7790;53.022;12.968;2023-04-24T15:31:19;19.90;53.90
15384;DHT22;7790;53.022;12.968;2023-04-24T15:35:20;19.70;53.90
15384;DHT22;7790;53.022;12.968;2023-04-24T15:39:22;19.90;54.70
15384;DHT22;7790;53.022;12.968;2023-04-24T15:43:27;19.90;54.40
15384;DHT22;7790;53.022;12.968;2023-04-24T15:47:32;19.90;54.50
15384;DHT22;7790;53.022;12.968;2023-04-24T15:51:33;20.00;54.60
15384;DHT22;7790;53.022;12.968;2023-04-24T15:55:34;19.90;54.40
15384;DHT22;7790;53.022;12.968;2023-04-24T15:59:37;19.90;54.50
15384;DHT22;7790;53.022;12.968;2023-04-24T16:03:37;19.90;54.40
15384;DHT22;7790;53.022;12.968;2023-04-24T16:07:38;19.80;54.40
15384;DHT22;7790;53.022;12.968;2023-04-24T16:11:40;19.80;54.40
15384;DHT22;7790;53.022;12.968;2023-04-24T16:15:40;19.80;54.30
15384;DHT22;7790;53.022;12.968;2023-04-24T16:19:41;19.80;54.30
15384;DHT22;7790;53.022;12.968;2023-04-24T16:23:42;19.70;54.40
15384;DHT22;7790;53.022;12.968;2023-04-24T16:27:43;19.70;54.30
15384;DHT22;7790;53.022;12.968;2023-04-24T16:31:44;19.60;54.30
15384;DHT22;7790;53.022;12.968;2023-04-24T16:35:45;19.70;54.40
15384;DHT22;7790;53.022;12.968;2023-04-24T16:39:46;19.60;54.40
15384;DHT22;7790;53.022;12.968;2023-04-24T16:43:47;19.60;54.40
15384;DHT22;7790;53.022;12.968;2023-04-24T16:47:48;19.50;54.20
15384;DHT22;7790;53.022;12.968;2023-04-24T16:51:49;19.50;54.40
15384;DHT22;7790;53.022;12.968;2023-04-24T16:55:50;19.50;54.50
15384;DHT22;7790;53.022;12.968;2023-04-24T16:59:51;19.50;54.50
15384;DHT22;7790;53.022;12.968;2023-04-24T17:03:51;19.50;54.40
15384;DHT22;7790;53.022;12.968;2023-04-24T17:07:52;19.50;54.60
15384;DHT22;7790;53.022;12.968;2023-04-24T17:11:53;19.40;54.40
15384;DHT22;7790;53.022;12.968;2023-04-24T17:15:54;19.40;55.00
15384;DHT22;7790;53.022;12.968;2023-04-24T17:19:55;19.40;54.60
15384;DHT22;7790;53.022;12.968;2023-04-24T17:23:56;19.40;54.50
15384;DHT22;7790;53.022;12.968;2023-04-24T17:27:57;19.40;54.40
15384;DHT22;7790;53.022;12.968;2023-04-24T17:31:58;19.40;54.10
15384;DHT22;7790;53.022;12.968;2023-04-24T17:35:59;19.40;54.30
15384;DHT22;7790;53.022;12.968;2023-04-24T17:40:04;19.40;54.20
15384;DHT22;7790;53.022;12.968;2023-04-24T17:44:05;19.60;54.10
15384;DHT22;7790;53.022;12.968;2023-04-24T17:48:06;19.60;53.70
15384;DHT22;7790;53.022;12.968;2023-04-24T17:52:06;19.50;54.50
15384;DHT22;7790;53.022;12.968;2023-04-24T17:56:07;19.40;54.70
15384;DHT22;7790;53.022;12.968;2023-04-24T18:00:09;19.40;54.90
15384;DHT22;7790;53.022;12.968;2023-04-24T18:04:10;19.40;54.40
15384;DHT22;7790;53.022;12.968;2023-04-24T18:08:11;19.40;54.50
15384;DHT22;7790;53.022;12.968;2023-04-24T18:12:12;19.30;54.80
15384;DHT22;7790;53.022;12.968;2023-04-24T18:16:13;19.30;54.70
15384;DHT22;7790;53.022;12.968;2023-04-24T18:20:16;19.30;54.80
15384;DHT22;7790;53.022;12.968;2023-04-24T18:24:17;19.30;54.80
15384;DHT22;7790;53.022;12.968;2023-04-24T18:28:19;19.30;54.70
15384;DHT22;7790;53.022;12.968;2023-04-24T18:32:20;19.30;54.70
15384;DHT22;7790;53.022;12.968;2023-04-24T18:36:20;19.20;54.50
15384;DHT22;7790;53.022;12.968;2023-04-24T18:40:21;19.30;54.40
15384;DHT22;7790;53.022;12.968;2023-04-24T18:44:22;19.30;54.00
15384;DHT22;7790;53.022;12.968;2023-04-24T18:48:25;19.20;54.10
15384;DHT22;7790;53.022;12.968;2023-04-24T18:52:28;19.20;54.00
15384;DHT22;7790;53.022;12.968;2023-04-24T18:56:29;19.20;53.80
15384;DHT22;7790;53.022;12.968;2023-04-24T19:00:30;19.20;53.70
15384;DHT22;7790;53.022;12.968;2023-04-24T19:04:31;19.20;53.70
15384;DHT22;7790;53.022;12.968;2023-04-24T19:08:32;19.20;53.50
15384;DHT22;7790;53.022;12.968;2023-04-24T19:12:33;19.20;53.40
15384;DHT22;7790;53.022;12.968;2023-04-24T19:16:34;19.20;53.40
15384;DHT22;7790;53.022;12.968;2023-04-24T19:20:34;19.10;53.20
15384;DHT22;7790;53.022;12.968;2023-04-24T19:24:35;19.10;53.20
15384;DHT22;7790;53.022;12.968;2023-04-24T19:28:36;19.10;53.10
15384;DHT22;7790;53.022;12.968;2023-04-24T19:32:37;19.10;53.00
15384;DHT22;7790;53.022;12.968;2023-04-24T19:36:37;19.10;53.10
15384;DHT22;7790;53.022;12.968;2023-04-24T19:40:38;19.10;53.00
15384;DHT22;7790;53.022;12.968;2023-04-24T19:44:39;19.10;52.90
15384;DHT22;7790;53.022;12.968;2023-04-24T19:48:40;19.10;53.00
15384;DHT22;7790;53.022;12.968;2023-04-24T19:52:41;19.10;53.00
15384;DHT22;7790;53.022;12.968;2023-04-24T19:56:42;19.10;52.90
15384;DHT22;7790;53.022;12.968;2023-04-24T20:00:43;19.10;53.00
15384;DHT22;7790;53.022;12.968;2023-04-24T20:04:44;19.00;53.00
15384;DHT22;7790;53.022;12.968;2023-04-24T20:08:44;19.00;52.90
15384;DHT22;7790;53.022;12.968;2023-04-24T20:12:45;19.00;52.90
15384;DHT22;7790;53.022;12.968;2023-04-24T20:16:46;19.00;52.90
15384;DHT22;7790;53.022;12.968;2023-04-24T20:20:47;19.00;52.90
15384;DHT22;7790;53.022;12.968;2023-04-24T20:24:48;19.00;52.90
15384;DHT22;7790;53.022;12.968;2023-04-24T20:28:50;18.90;52.90
15384;DHT22;7790;53.022;12.968;2023-04-24T20:32:50;19.00;52.90
15384;DHT22;7790;53.022;12.968;2023-04-24T20:36:51;18.90;52.90
15384;DHT22;7790;53.022;12.968;2023-04-24T20:40:52;18.90;52.90
15384;DHT22;7790;53.022;12.968;2023-04-24T20:44:54;18.90;52.90
15384;DHT22;7790;53.022;12.968;2023-04-24T20:48:55;18.90;53.00
15384;DHT22;7790;53.022;12.968;2023-04-24T20:52:56;18.90;53.40
15384;DHT22;7790;53.022;12.968;2023-04-24T20:56:57;18.90;52.90
15384;DHT22;7790;53.022;12.968;2023-04-24T21:00:58;18.90;52.90
15384;DHT22;7790;53.022;12.968;2023-04-24T21:04:59;18.90;52.90
15384;DHT22;7790;53.022;12.968;2023-04-24T21:09:00;18.90;52.80
15384;DHT22;7790;53.022;12.968;2023-04-24T21:13:01;18.90;52.70
15384;DHT22;7790;53.022;12.968;2023-04-24T21:17:02;18.90;52.60
15384;DHT22;7790;53.022;12.968;2023-04-24T21:21:02;18.90;52.60
15384;DHT22;7790;53.022;12.968;2023-04-24T21:25:04;18.90;52.70
15384;DHT22;7790;53.022;12.968;2023-04-24T21:29:05;18.90;52.70
15384;DHT22;7790;53.022;12.968;2023-04-24T21:33:05;18.80;52.60
15384;DHT22;7790;53.022;12.968;2023-04-24T21:37:06;18.80;52.60
15384;DHT22;7790;53.022;12.968;2023-04-24T21:41:07;18.80;52.60
15384;DHT22;7790;53.022;12.968;2023-04-24T21:45:08;18.80;52.60
15384;DHT22;7790;53.022;12.968;2023-04-24T21:49:09;18.80;52.70
15384;DHT22;7790;53.022;12.968;2023-04-24T21:53:10;18.80;52.60
15384;DHT22;7790;53.022;12.968;2023-04-24T21:57:11;18.80;52.70
15384;DHT22;7790;53.022;12.968;2023-04-24T22:01:12;18.80;52.70
15384;DHT22;7790;53.022;12.968;2023-04-24T22:05:15;18.80;52.70
15384;DHT22;7790;53.022;12.968;2023-04-24T22:09:17;18.70;52.60
15384;DHT22;7790;53.022;12.968;2023-04-24T22:13:18;18.80;52.60
15384;DHT22;7790;53.022;12.968;2023-04-24T22:17:19;18.80;52.50
15384;DHT22;7790;53.022;12.968;2023-04-24T22:21:20;18.70;52.40
15384;DHT22;7790;53.022;12.968;2023-04-24T22:25:22;18.80;52.60
15384;DHT22;7790;53.022;12.968;2023-04-24T22:29:22;18.80;52.50
15384;DHT22;7790;53.022;12.968;2023-04-24T22:33:23;18.70;52.40
15384;DHT22;7790;53.022;12.968;2023-04-24T22:37:24;18.80;52.60
15384;DHT22;7790;53.022;12.968;2023-04-24T22:41:25;18.80;52.40
15384;DHT22;7790;53.022;12.968;2023-04-24T22:45:26;18.70;52.30
15384;DHT22;7790;53.022;12.968;2023-04-24T22:49:27;18.70;52.30
15384;DHT22;7790;53.022;12.968;2023-04-24T22:53:27;18.70;52.30
15384;DHT22;7790;53.022;12.968;2023-04-24T22:57:28;18.70;52.40
15384;DHT22;7790;53.022;12.968;2023-04-24T23:01:29;18.70;52.40
15384;DHT22;7790;53.022;12.968;2023-04-24T23:05:30;18.70;52.90
15384;DHT22;7790;53.022;12.968;2023-04-24T23:09:31;18.70;52.40
15384;DHT22;7790;53.022;12.968;2023-04-24T23:13:32;18.70;52.40
15384;DHT22;7790;53.022;12.968;2023-04-24T23:17:33;18.70;52.40
15384;DHT22;7790;53.022;12.968;2023-04-24T23:21:33;18.70;52.40
15384;DHT22;7790;53.022;12.968;2023-04-24T23:25:34;18.60;52.40
15384;DHT22;7790;53.022;12.968;2023-04-24T23:29:35;18.60;52.30
15384;DHT22;7790;53.022;12.968;2023-04-24T23:33:36;18.60;52.30
15384;DHT22;7790;53.022;12.968;2023-04-24T23:37:37;18.60;52.30
15384;DHT22;7790;53.022;12.968;2023-04-24T23:41:38;18.60;52.30
15384;DHT22;7790;53.022;12.968;2023-04-24T23:45:39;18.60;52.20
15384;DHT22;7790;53.022;12.968;2023-04-24T23:49:40;18.60;52.30
15384;DHT22;7790;53.022;12.968;2023-04-24T23:53:41;18.60;52.20
15384;DHT22;7790;53.022;12.968;2023-04-24T23:57:45;18.60;52.30
